Grand Strand Airport
KCRE : rendu visible

Aérodrome :











RETROUVEZ-NOUS SUR...

 
LOGIN :

S'inscrire | Disclaimer

   EN    FR    IT 

 









Légende :    VFR   VFR Marginal   IFR   IFR Intensif   IFR Très Intensif
Visi : 
Plafond : 
>= 8 km
>= 3000ft
5 à 8 km
1000 à 3000 ft
1500m à 5 km
500 à 1000 ft
800 à 1500m
200 à 500 ft
< 800m
< 200 ft
Symboles :   Orages  Brouillard  Fortes neiges  Fortes précipitations  Vent > 20 kt






- Altitude de l'aérodrome : 32 ft


KCRE - Grand Strand

DERNIER METAR :
  • 150710Z AUTO 02008KT 8SM -RA BKN004 OVC080 09/09 A3015 RMK AO1 P0001 T00940089

METARs EXPIRÉS :
  • 150653Z AUTO 01009KT 9SM -RA BKN005 BKN050 OVC070 09/09 A3016 RMK AO1 SLP213 P0002 T00940089
  • 150632Z AUTO 01008KT 8SM -RA FEW008 BKN050 OVC070 09/09 A3016 RMK AO1 P0002 T00940089
  • 150553Z AUTO 01007KT 10SM -RA SCT029 BKN049 OVC095 09/08 A3018 RMK AO1 RAB24 SLP221 P0002 60007 T00940083 10117 20094 58016
  • 150538Z AUTO 01007KT 7SM -RA BKN028 BKN036 OVC070 09/08 A3019 RMK AO1 RAB24 P0002 T00940083
  • 150453Z AUTO 01008KT 10SM SCT033 OVC080 10/08 A3020 RMK AO1 RAE33 SLP227 P0002 T01000083 401280006

TAF KCRE
Valide du 15 à 06h jusqu'au 16 à 06h UTC


150523Z 1506/1606 01007KT 6SM -RA BR SCT012 OVC025
FM150800 02010KT 5SM -RA BR BKN005 OVC010
FM152000 02015G23KT 3SM -RA BR OVC004



MET'MAP, la Météo Aéronautique d'un coup d'oeil ! - Copyright ORBIFLY Décembre 2007 - Disclaimer

ORBIFLY MET'MAP TEAM :

Programmation & Développement : Alexandra Zaïnal
Conception & Développement : Baudouin d'Aumeries
Co-Programmation & Développement : Marc-Olivier Méhu
Soutien technique & logistique : Manuel Goepfert

Contact : metmap@orbifly.com




SOURCES & CREDITS :

   NOAA       Earth
Advisory